createdAt,value
2022-10-29T00:02:02.841Z,9.95
2022-10-29T00:04:30.129Z,8.55
2022-10-29T00:06:57.342Z,8.93
2022-10-29T00:09:24.509Z,9.95
2022-10-29T00:11:51.676Z,10.93
2022-10-29T00:14:18.886Z,11.07
2022-10-29T00:16:46.112Z,10.85
2022-10-29T00:19:13.277Z,10.05
2022-10-29T00:21:40.567Z,10.57
2022-10-29T00:24:09.681Z,12.35
2022-10-29T00:26:37.040Z,10.63
2022-10-29T00:29:04.395Z,10.38
2022-10-29T00:31:31.821Z,10.63
2022-10-29T00:33:59.139Z,11.05
2022-10-29T00:36:28.151Z,11.20
2022-10-29T00:38:57.214Z,12.07
2022-10-29T00:41:28.854Z,12.35
2022-10-29T00:44:14.982Z,10.98
2022-10-29T00:46:47.936Z,12.20
2022-10-29T00:49:16.380Z,11.43
2022-10-29T00:51:44.372Z,10.38
2022-10-29T00:54:12.498Z,10.15
2022-10-29T00:56:42.850Z,11.07
2022-10-29T00:59:10.341Z,10.85
2022-10-29T01:01:44.481Z,9.75
2022-10-29T01:04:12.275Z,10.30
2022-10-29T01:06:39.516Z,9.52
2022-10-29T01:09:06.899Z,11.23
2022-10-29T01:11:57.387Z,10.25
2022-10-29T01:14:44.398Z,11.23
2022-10-29T01:17:26.692Z,10.15
2022-10-29T01:20:12.433Z,8.95
2022-10-29T01:22:59.877Z,11.02
2022-10-29T01:25:45.678Z,10.15
2022-10-29T01:28:12.821Z,10.85
2022-10-29T01:30:58.876Z,12.38
2022-10-29T01:33:29.557Z,11.18
2022-10-29T01:36:05.847Z,10.75
2022-10-29T01:38:51.605Z,11.10
2022-10-29T01:41:18.808Z,13.00
2022-10-29T01:43:52.031Z,11.98
2022-10-29T01:46:24.573Z,11.60
2022-10-29T01:48:58.030Z,10.70
2022-10-29T01:51:27.461Z,11.13
2022-10-29T01:53:54.717Z,12.93
2022-10-29T01:56:21.805Z,10.40
2022-10-29T01:58:50.891Z,11.30
2022-10-29T02:01:33.728Z,10.98
2022-10-29T02:04:00.996Z,11.25
2022-10-29T02:06:33.927Z,13.45
2022-10-29T02:09:01.108Z,14.35
2022-10-29T02:11:31.599Z,12.23
2022-10-29T02:14:17.567Z,10.73
2022-10-29T02:16:44.856Z,11.68
2022-10-29T02:19:11.993Z,13.55
2022-10-29T02:21:40.701Z,12.13
2022-10-29T02:24:08.042Z,12.73
2022-10-29T02:26:35.257Z,11.65
2022-10-29T02:29:02.644Z,11.57
2022-10-29T02:31:30.117Z,11.88
2022-10-29T02:33:59.604Z,13.00
2022-10-29T02:36:26.753Z,11.70
2022-10-29T02:38:53.854Z,12.88
2022-10-29T02:41:21.826Z,12.35
2022-10-29T02:43:59.582Z,11.07
2022-10-29T02:46:27.242Z,12.60
2022-10-29T02:48:54.439Z,12.35
2022-10-29T02:51:21.653Z,12.90
2022-10-29T02:53:48.921Z,10.70
2022-10-29T02:56:16.121Z,13.18
2022-10-29T02:58:43.406Z,12.95
2022-10-29T03:01:10.635Z,12.20
2022-10-29T03:03:37.908Z,14.80
2022-10-29T03:06:05.178Z,12.70
2022-10-29T03:08:32.270Z,10.98
2022-10-29T03:10:59.379Z,10.80
2022-10-29T03:13:26.736Z,12.40
2022-10-29T03:15:54.006Z,12.50
2022-10-29T03:18:21.268Z,12.30
2022-10-29T03:20:48.591Z,12.50
2022-10-29T03:23:15.783Z,11.32
2022-10-29T03:25:43.071Z,11.15
2022-10-29T03:28:11.552Z,10.60
2022-10-29T03:30:38.833Z,10.40
2022-10-29T03:33:06.104Z,11.73
2022-10-29T03:35:41.335Z,12.55
2022-10-29T03:38:08.652Z,11.88
2022-10-29T03:40:38.676Z,12.90
2022-10-29T03:43:05.970Z,10.50
2022-10-29T03:45:33.419Z,12.38
2022-10-29T03:48:00.581Z,10.45
2022-10-29T03:50:27.835Z,11.35
2022-10-29T03:52:55.151Z,12.55
2022-10-29T03:55:22.346Z,11.23
2022-10-29T03:57:49.489Z,10.75
2022-10-29T04:00:17.372Z,12.45
2022-10-29T04:02:48.515Z,11.40
2022-10-29T09:21:12.254Z,7.75
2022-10-29T09:23:59.172Z,8.00
2022-10-29T09:27:08.179Z,7.43
2022-10-29T09:30:18.441Z,7.38
2022-10-29T09:33:01.729Z,6.30
2022-10-29T09:35:47.432Z,7.93
2022-10-29T09:38:38.186Z,6.63
2022-10-29T09:41:07.925Z,7.13
2022-10-29T09:44:15.441Z,6.70
2022-10-29T09:46:52.602Z,6.30
2022-10-29T09:49:41.213Z,6.38
2022-10-29T09:52:19.202Z,7.00
2022-10-29T10:26:15.091Z,5.90
2022-10-29T10:40:28.472Z,5.35
2022-10-29T10:42:58.723Z,6.18
2022-10-29T10:45:40.654Z,5.80
2022-10-29T10:48:20.797Z,5.35
2022-10-29T10:50:51.208Z,5.20
2022-10-29T10:53:27.487Z,5.57
2022-10-29T10:56:34.187Z,5.60
2022-10-29T10:59:31.295Z,5.63
2022-10-29T11:02:22.190Z,5.45
2022-10-29T11:05:12.305Z,5.75
2022-10-29T11:07:42.341Z,6.22
2022-10-29T11:10:29.577Z,5.63
2022-10-29T11:13:26.703Z,5.75
2022-10-29T11:16:26.310Z,6.63
2022-10-29T11:19:04.003Z,5.45
2022-10-29T11:21:36.616Z,5.85
2022-10-29T11:27:21.041Z,6.60
2022-10-29T11:33:04.270Z,6.50
2022-10-29T11:38:44.287Z,7.38
2022-10-29T11:44:33.656Z,6.63
2022-10-29T11:47:19.287Z,6.97
2022-10-29T11:53:21.914Z,6.05
2022-10-29T11:56:04.181Z,6.45
2022-10-29T11:58:40.556Z,6.82
2022-10-29T12:01:42.590Z,7.05
2022-10-29T12:07:51.360Z,7.47
2022-10-29T12:13:44.798Z,6.90
2022-10-29T12:20:22.202Z,7.80
2022-10-29T12:25:58.329Z,7.70
2022-10-29T12:31:57.289Z,7.18
2022-10-29T12:38:08.278Z,7.10
2022-10-29T12:40:58.576Z,7.22
2022-10-29T12:46:46.814Z,5.82
2022-10-29T12:50:08.539Z,6.85
2022-10-29T12:53:13.680Z,7.07
2022-10-29T12:59:12.206Z,7.03
2022-10-29T13:02:11.172Z,7.07
2022-10-29T13:05:29.043Z,6.43
2022-10-29T13:08:16.404Z,6.22
2022-10-29T13:11:06.759Z,6.28
2022-10-29T13:19:57.363Z,5.70
2022-10-29T13:23:05.377Z,5.95
2022-10-29T13:29:33.350Z,6.22
2022-10-29T13:32:21.310Z,6.85
2022-10-29T13:38:30.759Z,6.72
2022-10-29T13:41:10.921Z,5.97
2022-10-29T13:46:54.445Z,6.72
2022-10-29T13:49:35.135Z,6.07
2022-10-29T13:52:38.281Z,6.72
2022-10-29T13:58:26.782Z,5.80
2022-10-29T14:01:03.219Z,5.72
2022-10-29T14:04:07.993Z,6.10
2022-10-29T14:06:55.633Z,7.05
2022-10-29T14:19:35.419Z,6.57
2022-10-29T14:22:38.146Z,6.72
2022-10-29T14:25:25.134Z,5.55
2022-10-29T14:28:29.499Z,5.85
2022-10-29T14:31:10.352Z,6.05
2022-10-29T14:34:03.674Z,6.03
2022-10-29T14:36:56.953Z,5.85
2022-10-29T14:39:36.978Z,6.40
2022-10-29T14:42:28.583Z,5.88
2022-10-29T14:45:07.950Z,5.30
2022-10-29T14:47:43.298Z,6.20
2022-10-29T14:50:26.995Z,5.88
2022-10-29T14:53:16.128Z,12.85
2022-10-29T14:55:54.069Z,25.17
2022-10-29T14:58:21.405Z,9.00
2022-10-29T15:01:01.470Z,9.48
2022-10-29T15:03:36.524Z,7.38
2022-10-29T15:06:16.317Z,5.90
2022-10-29T15:08:49.404Z,5.60
2022-10-29T15:11:41.367Z,6.88
2022-10-29T15:14:40.286Z,6.50
2022-10-29T15:17:09.589Z,5.93
2022-10-29T15:19:40.862Z,6.55
2022-10-29T15:22:12.190Z,7.43
2022-10-29T15:24:49.017Z,6.80
2022-10-29T15:27:16.700Z,7.65
2022-10-29T15:29:49.228Z,8.48
2022-10-29T15:32:18.029Z,9.88
2022-10-29T15:34:55.907Z,12.95
2022-10-29T15:37:27.994Z,11.52
2022-10-29T15:40:01.277Z,10.52
2022-10-29T15:42:36.294Z,8.25
2022-10-29T15:45:20.834Z,7.45
2022-10-29T15:47:54.072Z,6.95
2022-10-29T15:50:24.610Z,14.73
2022-10-29T15:52:56.564Z,16.42
2022-10-29T15:55:26.807Z,15.65
2022-10-29T15:57:58.067Z,28.42
2022-10-29T16:00:25.752Z,28.98
2022-10-29T16:02:54.759Z,50.42
2022-10-29T16:05:22.185Z,40.83
2022-10-29T16:07:53.464Z,38.25
2022-10-29T16:10:22.054Z,40.05
2022-10-29T16:15:44.386Z,24.15
2022-10-29T16:18:11.886Z,27.60
2022-10-29T16:20:39.368Z,12.13
2022-10-29T16:23:10.600Z,9.40
2022-10-29T16:25:38.286Z,24.45
2022-10-29T16:28:05.940Z,20.85
2022-10-29T16:30:33.658Z,121.20
2022-10-29T16:33:01.774Z,47.92
2022-10-29T16:35:39.111Z,17.45
2022-10-29T16:38:09.580Z,10.43
2022-10-29T16:40:36.956Z,12.70
2022-10-29T16:43:04.327Z,16.48
2022-10-29T16:45:33.356Z,17.02
2022-10-29T16:48:01.131Z,13.05
2022-10-29T16:50:31.042Z,15.90
2022-10-29T16:52:58.759Z,14.15
2022-10-29T16:55:26.451Z,12.38
2022-10-29T16:57:54.254Z,10.85
2022-10-29T17:00:22.047Z,12.13
2022-10-29T17:02:59.229Z,9.73
2022-10-29T17:05:31.889Z,9.90
2022-10-29T17:07:59.237Z,9.90
2022-10-29T17:10:26.966Z,9.15
2022-10-29T17:12:57.174Z,8.90
2022-10-29T17:15:25.150Z,9.27
2022-10-29T17:18:01.941Z,8.18
2022-10-29T17:20:52.762Z,9.60
2022-10-29T17:38:10.146Z,9.18
2022-10-29T17:40:48.616Z,9.23
2022-10-29T17:43:38.624Z,9.70
2022-10-29T17:52:47.932Z,9.27
2022-10-29T17:55:15.327Z,11.88
2022-10-29T17:57:43.357Z,11.68
2022-10-29T18:00:11.178Z,34.85
2022-10-29T18:02:38.558Z,14.32
2022-10-29T18:05:06.058Z,16.02
2022-10-29T18:07:33.282Z,12.90
2022-10-29T18:10:00.387Z,17.05
2022-10-29T18:12:27.961Z,17.02
2022-10-29T18:14:55.434Z,12.45
2022-10-29T18:17:23.037Z,11.05
2022-10-29T18:20:00.175Z,10.65
2022-10-29T18:23:09.777Z,10.95
2022-10-29T18:26:07.985Z,10.55
2022-10-29T18:28:55.298Z,10.35
2022-10-29T18:31:35.034Z,11.18
2022-10-29T18:34:07.168Z,11.63
2022-10-29T18:36:37.392Z,16.02
2022-10-29T18:39:06.543Z,19.77
2022-10-29T18:41:34.570Z,27.55
2022-10-29T18:44:01.976Z,21.73
2022-10-29T18:46:29.256Z,17.85
2022-10-29T18:48:56.393Z,17.23
2022-10-29T18:51:25.272Z,15.68
2022-10-29T18:53:53.201Z,16.40
2022-10-29T18:56:21.591Z,19.75
2022-10-29T18:58:49.298Z,23.52
2022-10-29T19:01:16.790Z,21.85
2022-10-29T19:03:44.849Z,17.83
2022-10-29T19:06:14.224Z,20.35
2022-10-29T19:08:42.979Z,16.65
2022-10-29T19:11:13.714Z,15.60
2022-10-29T19:13:40.994Z,14.77
2022-10-29T19:16:12.327Z,15.10
2022-10-29T19:18:40.379Z,16.67
2022-10-29T19:21:08.855Z,15.52
2022-10-29T19:23:36.368Z,15.80
2022-10-29T19:26:13.674Z,14.10
2022-10-29T19:28:41.194Z,14.77
2022-10-29T19:31:12.649Z,16.60
2022-10-29T19:33:40.178Z,16.15
2022-10-29T19:36:08.092Z,16.80
2022-10-29T19:38:35.424Z,17.02
2022-10-29T19:41:02.876Z,17.15
2022-10-29T19:43:30.838Z,16.80
2022-10-29T19:46:00.553Z,16.95
2022-10-29T19:48:27.815Z,16.13
2022-10-29T19:50:56.567Z,15.48
2022-10-29T19:53:24.452Z,17.08
2022-10-29T19:55:52.416Z,20.25
2022-10-29T19:58:21.182Z,18.02
2022-10-29T20:00:48.547Z,15.95
2022-10-29T20:03:16.693Z,17.08
2022-10-29T20:05:44.777Z,15.43
2022-10-29T20:08:15.688Z,17.00
2022-10-29T20:10:54.169Z,19.33
2022-10-29T20:13:21.296Z,16.25
2022-10-29T20:15:48.646Z,15.85
2022-10-29T20:18:16.172Z,19.10
2022-10-29T20:20:43.696Z,17.15
2022-10-29T20:23:11.107Z,19.88
2022-10-29T20:25:38.530Z,20.67
2022-10-29T20:28:06.289Z,16.98
2022-10-29T20:30:33.727Z,16.98
2022-10-29T20:33:01.295Z,16.77
2022-10-29T20:35:28.774Z,17.17
2022-10-29T20:37:56.358Z,15.65
2022-10-29T20:40:23.880Z,16.90
2022-10-29T20:42:51.563Z,15.13
2022-10-29T20:45:19.839Z,13.32
2022-10-29T20:47:47.288Z,12.57
2022-10-29T20:50:16.017Z,15.07
2022-10-29T20:52:48.836Z,15.20
2022-10-29T20:55:17.952Z,13.50
2022-10-29T20:57:45.381Z,12.75
2022-10-29T21:00:12.960Z,13.10
2022-10-29T21:02:40.329Z,13.57
2022-10-29T21:05:07.873Z,14.02
2022-10-29T21:07:42.419Z,14.70
2022-10-29T21:10:50.302Z,12.68
2022-10-29T21:13:23.413Z,13.93
2022-10-29T21:15:59.291Z,12.88
2022-10-29T21:18:26.665Z,12.38
2022-10-29T21:20:54.017Z,62.95
2022-10-29T21:23:23.852Z,47.47
2022-10-29T21:25:54.456Z,32.40
2022-10-29T21:28:21.920Z,25.63
2022-10-29T21:30:49.188Z,32.22
2022-10-29T21:33:16.378Z,69.50
2022-10-29T21:35:43.730Z,56.88
2022-10-29T21:40:41.752Z,27.67
2022-10-29T21:43:08.895Z,14.80
2022-10-29T21:45:36.373Z,14.23
2022-10-29T21:48:03.792Z,18.10
2022-10-29T21:50:33.882Z,14.27
2022-10-29T21:53:01.796Z,14.32
2022-10-29T21:55:29.928Z,14.32
2022-10-29T21:58:06.177Z,17.10
2022-10-29T22:00:38.016Z,15.45
2022-10-29T22:03:05.403Z,13.40
2022-10-29T22:05:33.401Z,13.48
2022-10-29T22:08:01.290Z,12.90
2022-10-29T22:10:29.139Z,14.65
2022-10-29T22:12:57.006Z,13.15
2022-10-29T22:15:24.584Z,17.60
2022-10-29T22:17:51.954Z,21.08
2022-10-29T22:20:19.325Z,14.95
2022-10-29T22:22:46.814Z,14.75
2022-10-29T22:25:14.259Z,16.55
2022-10-29T22:27:41.812Z,14.90
2022-10-29T22:30:10.007Z,16.10
2022-10-29T22:32:37.526Z,28.58
2022-10-29T22:35:04.979Z,42.65
2022-10-29T22:37:32.545Z,55.08
2022-10-29T22:39:59.832Z,32.08
2022-10-29T22:42:27.623Z,32.65
2022-10-29T22:44:55.077Z,33.75
2022-10-29T22:47:22.349Z,27.73
2022-10-29T22:49:49.766Z,19.27
2022-10-29T22:52:17.159Z,19.10
2022-10-29T22:54:44.869Z,19.08
2022-10-29T22:57:12.431Z,21.92
2022-10-29T22:59:39.805Z,19.58
2022-10-29T23:02:07.669Z,19.40
2022-10-29T23:04:35.266Z,17.70
2022-10-29T23:07:02.679Z,16.48
2022-10-29T23:12:05.933Z,18.77
2022-10-29T23:14:33.354Z,18.33
2022-10-29T23:17:00.832Z,18.38
2022-10-29T23:19:28.226Z,18.42
2022-10-29T23:21:55.727Z,17.48
2022-10-29T23:24:23.084Z,18.70
2022-10-29T23:29:58.886Z,19.38
2022-10-29T23:32:27.686Z,22.65
2022-10-29T23:46:11.393Z,16.48
2022-10-29T23:48:58.642Z,16.80
2022-10-29T23:51:38.077Z,17.95
2022-10-29T23:56:57.193Z,17.10
2022-10-29T23:59:38.037Z,16.58
